sensor_id;sensor_type;location;lat;lon;timestamp;pressure;altitude;pressure_sealevel;temperature;humidity
43663;BME280;74813;56.104;40.358;2024-02-26T00:02:12;101364.19;;;-4.37;54.66
43663;BME280;74813;56.104;40.358;2024-02-26T00:04:45;101362.63;;;-4.77;55.52
43663;BME280;74813;56.104;40.358;2024-02-26T00:07:17;101370.09;;;-4.70;56.04
43663;BME280;74813;56.104;40.358;2024-02-26T00:09:49;101367.94;;;-4.57;55.40
43663;BME280;74813;56.104;40.358;2024-02-26T00:12:22;101373.56;;;-4.50;55.39
43663;BME280;74813;56.104;40.358;2024-02-26T00:14:54;101367.84;;;-4.85;55.91
43663;BME280;74813;56.104;40.358;2024-02-26T00:17:26;101348.44;;;-4.59;55.40
43663;BME280;74813;56.104;40.358;2024-02-26T00:19:59;101374.72;;;-4.63;55.30
43663;BME280;74813;56.104;40.358;2024-02-26T00:22:31;101388.38;;;-4.84;56.03
43663;BME280;74813;56.104;40.358;2024-02-26T00:25:04;101372.78;;;-4.70;55.54
43663;BME280;74813;56.104;40.358;2024-02-26T00:27:37;101356.31;;;-4.58;55.09
43663;BME280;74813;56.104;40.358;2024-02-26T00:30:10;101391.03;;;-4.74;55.85
43663;BME280;74813;56.104;40.358;2024-02-26T00:32:42;101372.53;;;-4.87;56.16
43663;BME280;74813;56.104;40.358;2024-02-26T00:35:14;101381.56;;;-4.88;56.35
43663;BME280;74813;56.104;40.358;2024-02-26T00:37:47;101402.75;;;-4.75;55.72
43663;BME280;74813;56.104;40.358;2024-02-26T00:40:19;101369.84;;;-4.77;55.77
43663;BME280;74813;56.104;40.358;2024-02-26T00:42:51;101361.38;;;-4.92;56.27
43663;BME280;74813;56.104;40.358;2024-02-26T00:45:24;101377.09;;;-5.16;57.55
43663;BME280;74813;56.104;40.358;2024-02-26T00:47:56;101355.72;;;-4.89;56.80
43663;BME280;74813;56.104;40.358;2024-02-26T00:50:28;101359.78;;;-4.85;56.37
43663;BME280;74813;56.104;40.358;2024-02-26T00:53:01;101370.59;;;-5.14;57.38
43663;BME280;74813;56.104;40.358;2024-02-26T00:55:34;101352.31;;;-4.91;56.78
43663;BME280;74813;56.104;40.358;2024-02-26T00:58:06;101361.81;;;-5.26;57.55
43663;BME280;74813;56.104;40.358;2024-02-26T01:00:38;101382.72;;;-5.29;57.57
43663;BME280;74813;56.104;40.358;2024-02-26T01:03:11;101354.75;;;-5.36;57.80
43663;BME280;74813;56.104;40.358;2024-02-26T01:05:44;101352.94;;;-5.16;57.55
43663;BME280;74813;56.104;40.358;2024-02-26T01:08:16;101362.53;;;-5.43;58.06
43663;BME280;74813;56.104;40.358;2024-02-26T01:10:49;101375.94;;;-5.43;58.07
43663;BME280;74813;56.104;40.358;2024-02-26T01:13:21;101369.56;;;-5.52;58.28
43663;BME280;74813;56.104;40.358;2024-02-26T01:15:53;101381.31;;;-5.43;58.22
43663;BME280;74813;56.104;40.358;2024-02-26T01:18:26;101368.31;;;-5.48;58.31
43663;BME280;74813;56.104;40.358;2024-02-26T01:20:58;101368.44;;;-5.30;57.87
43663;BME280;74813;56.104;40.358;2024-02-26T01:23:30;101349.09;;;-5.43;58.59
43663;BME280;74813;56.104;40.358;2024-02-26T01:26:03;101359.69;;;-5.32;58.41
43663;BME280;74813;56.104;40.358;2024-02-26T01:28:35;101393.47;;;-5.49;58.83
43663;BME280;74813;56.104;40.358;2024-02-26T01:31:09;101357.56;;;-5.57;59.05
43663;BME280;74813;56.104;40.358;2024-02-26T01:33:41;101358.13;;;-5.64;59.31
43663;BME280;74813;56.104;40.358;2024-02-26T01:36:14;101376.22;;;-5.56;59.00
43663;BME280;74813;56.104;40.358;2024-02-26T01:38:46;101362.81;;;-5.36;58.71
43663;BME280;74813;56.104;40.358;2024-02-26T01:41:19;101352.75;;;-5.34;58.75
43663;BME280;74813;56.104;40.358;2024-02-26T01:43:51;101358.56;;;-5.58;59.22
43663;BME280;74813;56.104;40.358;2024-02-26T01:46:23;101354.88;;;-5.57;59.70
43663;BME280;74813;56.104;40.358;2024-02-26T01:48:56;101358.13;;;-5.54;59.56
43663;BME280;74813;56.104;40.358;2024-02-26T01:51:29;101340.31;;;-5.65;60.06
43663;BME280;74813;56.104;40.358;2024-02-26T01:54:03;101351.94;;;-5.35;59.39
43663;BME280;74813;56.104;40.358;2024-02-26T01:56:36;101370.00;;;-5.66;59.85
43663;BME280;74813;56.104;40.358;2024-02-26T01:59:10;101342.59;;;-5.70;60.10
43663;BME280;74813;56.104;40.358;2024-02-26T02:01:44;101344.72;;;-5.73;60.21
43663;BME280;74813;56.104;40.358;2024-02-26T02:04:21;101348.53;;;-5.66;60.29
43663;BME280;74813;56.104;40.358;2024-02-26T02:06:55;101370.88;;;-5.46;59.60
43663;BME280;74813;56.104;40.358;2024-02-26T02:09:29;101370.22;;;-5.79;60.94
43663;BME280;74813;56.104;40.358;2024-02-26T02:12:02;101353.31;;;-5.60;60.50
43663;BME280;74813;56.104;40.358;2024-02-26T02:14:35;101342.31;;;-5.47;59.99
43663;BME280;74813;56.104;40.358;2024-02-26T02:17:07;101347.22;;;-5.72;60.86
43663;BME280;74813;56.104;40.358;2024-02-26T02:19:40;101332.84;;;-5.71;60.55
43663;BME280;74813;56.104;40.358;2024-02-26T02:22:13;101341.75;;;-5.51;60.17
43663;BME280;74813;56.104;40.358;2024-02-26T02:24:45;101352.34;;;-5.49;60.24
43663;BME280;74813;56.104;40.358;2024-02-26T02:27:19;101347.97;;;-5.60;60.62
43663;BME280;74813;56.104;40.358;2024-02-26T02:29:51;101352.47;;;-5.60;60.70
43663;BME280;74813;56.104;40.358;2024-02-26T02:32:24;101333.69;;;-5.80;61.27
43663;BME280;74813;56.104;40.358;2024-02-26T02:34:57;101335.38;;;-5.59;61.41
43663;BME280;74813;56.104;40.358;2024-02-26T02:37:30;101340.75;;;-5.50;60.81
43663;BME280;74813;56.104;40.358;2024-02-26T02:40:03;101340.91;;;-5.71;61.51
43663;BME280;74813;56.104;40.358;2024-02-26T02:42:36;101318.44;;;-5.60;60.93
43663;BME280;74813;56.104;40.358;2024-02-26T02:45:09;101338.34;;;-5.63;61.47
43663;BME280;74813;56.104;40.358;2024-02-26T02:47:41;101337.50;;;-5.63;61.45
43663;BME280;74813;56.104;40.358;2024-02-26T02:50:13;101333.72;;;-5.60;61.78
43663;BME280;74813;56.104;40.358;2024-02-26T02:52:46;101347.22;;;-5.72;61.99
43663;BME280;74813;56.104;40.358;2024-02-26T02:55:18;101337.22;;;-5.70;61.91
43663;BME280;74813;56.104;40.358;2024-02-26T02:57:51;101331.56;;;-5.67;61.59
43663;BME280;74813;56.104;40.358;2024-02-26T03:00:23;101324.63;;;-5.79;62.10
43663;BME280;74813;56.104;40.358;2024-02-26T03:02:55;101321.94;;;-5.79;62.13
43663;BME280;74813;56.104;40.358;2024-02-26T03:05:28;101345.38;;;-5.71;62.37
43663;BME280;74813;56.104;40.358;2024-02-26T03:08:00;101331.56;;;-5.76;62.49
43663;BME280;74813;56.104;40.358;2024-02-26T03:10:32;101329.47;;;-5.73;62.37
43663;BME280;74813;56.104;40.358;2024-02-26T03:13:05;101332.97;;;-5.82;62.89
43663;BME280;74813;56.104;40.358;2024-02-26T03:15:37;101330.19;;;-5.51;61.83
43663;BME280;74813;56.104;40.358;2024-02-26T03:18:10;101330.00;;;-5.69;62.02
43663;BME280;74813;56.104;40.358;2024-02-26T03:20:42;101334.38;;;-5.78;62.92
43663;BME280;74813;56.104;40.358;2024-02-26T03:23:14;101316.34;;;-5.76;62.67
43663;BME280;74813;56.104;40.358;2024-02-26T03:25:47;101317.19;;;-5.56;62.68
43663;BME280;74813;56.104;40.358;2024-02-26T03:28:19;101317.00;;;-5.84;63.03
43663;BME280;74813;56.104;40.358;2024-02-26T03:30:52;101318.00;;;-5.75;62.79
43663;BME280;74813;56.104;40.358;2024-02-26T03:33:24;101311.66;;;-5.74;63.02
43663;BME280;74813;56.104;40.358;2024-02-26T03:35:56;101310.69;;;-5.73;63.17
43663;BME280;74813;56.104;40.358;2024-02-26T03:38:29;101316.59;;;-5.79;63.29
43663;BME280;74813;56.104;40.358;2024-02-26T03:41:01;101316.16;;;-5.84;63.52
43663;BME280;74813;56.104;40.358;2024-02-26T03:43:34;101319.16;;;-5.68;63.03
43663;BME280;74813;56.104;40.358;2024-02-26T03:46:09;101322.81;;;-5.78;63.19
43663;BME280;74813;56.104;40.358;2024-02-26T03:48:42;101316.06;;;-5.53;62.49
43663;BME280;74813;56.104;40.358;2024-02-26T03:51:14;101332.41;;;-5.56;62.42
43663;BME280;74813;56.104;40.358;2024-02-26T03:53:46;101314.34;;;-5.74;63.19
43663;BME280;74813;56.104;40.358;2024-02-26T03:56:19;101325.06;;;-5.74;63.08
43663;BME280;74813;56.104;40.358;2024-02-26T03:58:51;101338.34;;;-5.72;63.38
43663;BME280;74813;56.104;40.358;2024-02-26T04:01:23;101323.09;;;-5.72;63.32
43663;BME280;74813;56.104;40.358;2024-02-26T04:03:56;101327.50;;;-5.51;62.90
43663;BME280;74813;56.104;40.358;2024-02-26T04:06:28;101327.16;;;-5.87;63.90
43663;BME280;74813;56.104;40.358;2024-02-26T04:09:01;101322.81;;;-5.49;62.85
43663;BME280;74813;56.104;40.358;2024-02-26T04:11:33;101330.44;;;-5.64;63.56
43663;BME280;74813;56.104;40.358;2024-02-26T04:14:05;101331.31;;;-5.64;63.14
43663;BME280;74813;56.104;40.358;2024-02-26T04:16:38;101332.56;;;-5.68;63.36
43663;BME280;74813;56.104;40.358;2024-02-26T04:19:10;101331.16;;;-5.62;63.15
43663;BME280;74813;56.104;40.358;2024-02-26T04:21:43;101322.25;;;-5.72;63.52
43663;BME280;74813;56.104;40.358;2024-02-26T04:24:15;101332.56;;;-5.68;63.39
43663;BME280;74813;56.104;40.358;2024-02-26T04:26:47;101340.03;;;-5.62;63.18
43663;BME280;74813;56.104;40.358;2024-02-26T04:29:20;101324.53;;;-5.48;63.32
43663;BME280;74813;56.104;40.358;2024-02-26T04:31:52;101319.72;;;-5.45;62.96
43663;BME280;74813;56.104;40.358;2024-02-26T04:34:25;101317.44;;;-5.49;63.25
43663;BME280;74813;56.104;40.358;2024-02-26T04:36:57;101312.94;;;-5.78;64.25
43663;BME280;74813;56.104;40.358;2024-02-26T04:39:29;101312.25;;;-5.41;63.24
43663;BME280;74813;56.104;40.358;2024-02-26T04:42:02;101313.63;;;-5.37;62.92
43663;BME280;74813;56.104;40.358;2024-02-26T04:44:34;101323.25;;;-5.54;63.92
43663;BME280;74813;56.104;40.358;2024-02-26T04:47:07;101317.44;;;-5.59;63.92
43663;BME280;74813;56.104;40.358;2024-02-26T04:49:39;101325.66;;;-5.60;63.11
43663;BME280;74813;56.104;40.358;2024-02-26T04:52:11;101335.56;;;-5.51;62.88
43663;BME280;74813;56.104;40.358;2024-02-26T04:54:44;101327.63;;;-5.53;63.64
43663;BME280;74813;56.104;40.358;2024-02-26T04:57:16;101323.25;;;-5.44;63.27
43663;BME280;74813;56.104;40.358;2024-02-26T04:59:48;101333.97;;;-5.44;63.27
43663;BME280;74813;56.104;40.358;2024-02-26T05:02:21;101323.94;;;-5.52;63.72
43663;BME280;74813;56.104;40.358;2024-02-26T05:04:53;101332.16;;;-5.34;63.03
43663;BME280;74813;56.104;40.358;2024-02-26T05:07:25;101322.69;;;-5.57;64.06
43663;BME280;74813;56.104;40.358;2024-02-26T05:09:58;101318.31;;;-5.58;64.10
43663;BME280;74813;56.104;40.358;2024-02-26T05:12:30;101317.19;;;-5.56;64.36
43663;BME280;74813;56.104;40.358;2024-02-26T05:15:03;101332.59;;;-5.29;63.00
43663;BME280;74813;56.104;40.358;2024-02-26T05:17:38;101331.44;;;-5.16;62.87
43663;BME280;74813;56.104;40.358;2024-02-26T05:20:10;101319.41;;;-5.12;62.34
43663;BME280;74813;56.104;40.358;2024-02-26T05:22:43;101325.91;;;-5.34;63.73
43663;BME280;74813;56.104;40.358;2024-02-26T05:25:15;101332.16;;;-5.24;62.93
43663;BME280;74813;56.104;40.358;2024-02-26T05:27:48;101328.06;;;-5.19;62.99
43663;BME280;74813;56.104;40.358;2024-02-26T05:30:20;101354.88;;;-4.99;62.42
43663;BME280;74813;56.104;40.358;2024-02-26T05:32:53;101335.25;;;-5.19;63.03
43663;BME280;74813;56.104;40.358;2024-02-26T05:35:25;101329.19;;;-5.11;62.77
43663;BME280;74813;56.104;40.358;2024-02-26T05:37:58;101324.44;;;-4.90;62.13
43663;BME280;74813;56.104;40.358;2024-02-26T05:40:30;101328.22;;;-4.73;61.59
43663;BME280;74813;56.104;40.358;2024-02-26T05:43:02;101338.38;;;-5.14;62.96
43663;BME280;74813;56.104;40.358;2024-02-26T05:45:35;101324.47;;;-5.00;62.63
43663;BME280;74813;56.104;40.358;2024-02-26T05:48:07;101309.44;;;-4.83;61.94
43663;BME280;74813;56.104;40.358;2024-02-26T05:50:39;101344.53;;;-4.74;61.92
43663;BME280;74813;56.104;40.358;2024-02-26T05:53:12;101344.28;;;-5.20;63.34
43663;BME280;74813;56.104;40.358;2024-02-26T05:55:44;101330.06;;;-4.64;61.91
43663;BME280;74813;56.104;40.358;2024-02-26T05:58:17;101322.44;;;-4.78;61.92
43663;BME280;74813;56.104;40.358;2024-02-26T06:00:49;101323.44;;;-4.69;61.53
43663;BME280;74813;56.104;40.358;2024-02-26T06:03:21;101320.16;;;-4.63;61.00
43663;BME280;74813;56.104;40.358;2024-02-26T06:05:54;101350.44;;;-4.81;62.10
43663;BME280;74813;56.104;40.358;2024-02-26T06:08:26;101325.22;;;-4.60;62.11
43663;BME280;74813;56.104;40.358;2024-02-26T06:10:59;101331.47;;;-4.60;61.68
43663;BME280;74813;56.104;40.358;2024-02-26T06:13:31;101329.03;;;-4.25;60.53
43663;BME280;74813;56.104;40.358;2024-02-26T06:16:04;101298.44;;;-4.80;61.85
43663;BME280;74813;56.104;40.358;2024-02-26T06:18:36;101330.22;;;-4.38;61.24
43663;BME280;74813;56.104;40.358;2024-02-26T06:21:09;101323.53;;;-4.61;62.12
43663;BME280;74813;56.104;40.358;2024-02-26T06:23:42;101341.84;;;-4.37;60.90
43663;BME280;74813;56.104;40.358;2024-02-26T06:26:14;101323.88;;;-4.09;60.15
43663;BME280;74813;56.104;40.358;2024-02-26T06:28:46;101340.72;;;-4.07;60.14
43663;BME280;74813;56.104;40.358;2024-02-26T06:31:19;101327.53;;;-4.38;60.89
43663;BME280;74813;56.104;40.358;2024-02-26T06:33:51;101324.25;;;-4.04;60.02
43663;BME280;74813;56.104;40.358;2024-02-26T06:36:24;101313.41;;;-4.12;60.02
43663;BME280;74813;56.104;40.358;2024-02-26T06:38:56;101333.13;;;-4.21;60.01
43663;BME280;74813;56.104;40.358;2024-02-26T06:41:28;101333.38;;;-3.87;60.06
43663;BME280;74813;56.104;40.358;2024-02-26T06:44:01;101324.16;;;-3.84;59.58
43663;BME280;74813;56.104;40.358;2024-02-26T06:46:33;101323.63;;;-3.88;58.88
43663;BME280;74813;56.104;40.358;2024-02-26T06:49:05;101332.28;;;-3.94;59.75
43663;BME280;74813;56.104;40.358;2024-02-26T06:51:38;101318.41;;;-3.54;58.65
43663;BME280;74813;56.104;40.358;2024-02-26T06:54:10;101335.16;;;-3.78;59.36
43663;BME280;74813;56.104;40.358;2024-02-26T06:56:42;101328.63;;;-3.39;57.72
43663;BME280;74813;56.104;40.358;2024-02-26T06:59:15;101315.25;;;-3.31;58.18
43663;BME280;74813;56.104;40.358;2024-02-26T07:01:47;101312.75;;;-3.07;57.71
43663;BME280;74813;56.104;40.358;2024-02-26T07:04:20;101312.56;;;-3.67;59.13
43663;BME280;74813;56.104;40.358;2024-02-26T07:06:52;101326.53;;;-3.81;59.26
43663;BME280;74813;56.104;40.358;2024-02-26T07:09:24;101309.22;;;-3.07;57.84
43663;BME280;74813;56.104;40.358;2024-02-26T07:11:57;101328.50;;;-2.68;56.56
43663;BME280;74813;56.104;40.358;2024-02-26T07:14:29;101295.72;;;-3.33;57.85
43663;BME280;74813;56.104;40.358;2024-02-26T07:17:01;101327.41;;;-2.83;56.78
43663;BME280;74813;56.104;40.358;2024-02-26T07:19:34;101315.16;;;-3.04;57.49
43663;BME280;74813;56.104;40.358;2024-02-26T07:22:06;101308.84;;;-3.66;59.17
43663;BME280;74813;56.104;40.358;2024-02-26T07:24:39;101329.47;;;-3.21;57.79
43663;BME280;74813;56.104;40.358;2024-02-26T07:27:11;101308.69;;;-3.11;57.95
43663;BME280;74813;56.104;40.358;2024-02-26T07:29:43;101316.63;;;-2.83;57.02
43663;BME280;74813;56.104;40.358;2024-02-26T07:32:16;101307.06;;;-2.77;57.19
43663;BME280;74813;56.104;40.358;2024-02-26T07:34:48;101315.56;;;-3.34;58.34
43663;BME280;74813;56.104;40.358;2024-02-26T07:37:21;101310.25;;;-3.26;58.69
43663;BME280;74813;56.104;40.358;2024-02-26T07:39:53;101308.81;;;-2.34;55.96
43663;BME280;74813;56.104;40.358;2024-02-26T07:42:25;101321.06;;;-2.05;54.95
43663;BME280;74813;56.104;40.358;2024-02-26T07:44:58;101318.13;;;-2.20;54.87
43663;BME280;74813;56.104;40.358;2024-02-26T07:47:30;101332.72;;;-2.39;55.57
43663;BME280;74813;56.104;40.358;2024-02-26T07:50:03;101307.56;;;-2.13;55.38
43663;BME280;74813;56.104;40.358;2024-02-26T07:52:35;101296.22;;;-2.60;56.13
43663;BME280;74813;56.104;40.358;2024-02-26T07:55:08;101325.25;;;-2.11;55.35
43663;BME280;74813;56.104;40.358;2024-02-26T07:57:43;101309.19;;;-2.89;57.12
43663;BME280;74813;56.104;40.358;2024-02-26T08:00:16;101321.03;;;-2.48;56.53
43663;BME280;74813;56.104;40.358;2024-02-26T08:02:48;101303.91;;;-2.65;57.30
43663;BME280;74813;56.104;40.358;2024-02-26T08:05:21;101327.72;;;-2.26;55.94
43663;BME280;74813;56.104;40.358;2024-02-26T08:07:53;101329.69;;;-2.02;55.25
43663;BME280;74813;56.104;40.358;2024-02-26T08:10:25;101331.41;;;-2.87;57.45
43663;BME280;74813;56.104;40.358;2024-02-26T08:12:58;101309.06;;;-1.60;55.35
43663;BME280;74813;56.104;40.358;2024-02-26T08:15:33;101296.22;;;-1.66;55.19
43663;BME280;74813;56.104;40.358;2024-02-26T08:18:06;101317.59;;;-2.66;57.25
43663;BME280;74813;56.104;40.358;2024-02-26T08:20:38;101290.94;;;-1.76;55.14
43663;BME280;74813;56.104;40.358;2024-02-26T08:23:10;101314.75;;;-1.71;54.95
43663;BME280;74813;56.104;40.358;2024-02-26T08:25:43;101288.13;;;-1.01;53.13
43663;BME280;74813;56.104;40.358;2024-02-26T08:28:15;101285.28;;;-1.40;55.07
43663;BME280;74813;56.104;40.358;2024-02-26T08:30:48;101300.25;;;-0.64;52.42
43663;BME280;74813;56.104;40.358;2024-02-26T08:33:20;101295.56;;;-1.03;53.28
43663;BME280;74813;56.104;40.358;2024-02-26T08:35:52;101280.78;;;-1.90;54.83
43663;BME280;74813;56.104;40.358;2024-02-26T08:38:25;101265.47;;;-0.92;52.80
43663;BME280;74813;56.104;40.358;2024-02-26T08:40:57;101260.59;;;0.22;49.70
43663;BME280;74813;56.104;40.358;2024-02-26T08:43:29;101244.06;;;0.63;49.41
43663;BME280;74813;56.104;40.358;2024-02-26T08:46:02;101245.25;;;0.60;48.77
43663;BME280;74813;56.104;40.358;2024-02-26T08:48:34;101251.84;;;0.81;47.89
43663;BME280;74813;56.104;40.358;2024-02-26T08:51:07;101255.25;;;0.37;48.86
43663;BME280;74813;56.104;40.358;2024-02-26T08:53:40;101263.19;;;0.84;47.67
43663;BME280;74813;56.104;40.358;2024-02-26T08:56:12;101265.91;;;0.61;48.80
43663;BME280;74813;56.104;40.358;2024-02-26T08:58:45;101244.16;;;1.22;46.99
43663;BME280;74813;56.104;40.358;2024-02-26T09:01:17;101263.19;;;0.84;47.22
43663;BME280;74813;56.104;40.358;2024-02-26T09:03:50;101255.09;;;0.99;47.57
43663;BME280;74813;56.104;40.358;2024-02-26T09:06:22;101253.22;;;0.62;48.24
43663;BME280;74813;56.104;40.358;2024-02-26T09:08:55;101239.16;;;0.58;48.42
43663;BME280;74813;56.104;40.358;2024-02-26T09:11:27;101246.59;;;0.64;48.33
43663;BME280;74813;56.104;40.358;2024-02-26T09:14:00;101232.66;;;-0.02;48.64
43663;BME280;74813;56.104;40.358;2024-02-26T09:16:32;101239.72;;;0.77;48.43
43663;BME280;74813;56.104;40.358;2024-02-26T09:19:04;101249.47;;;0.63;48.23
43663;BME280;74813;56.104;40.358;2024-02-26T09:21:42;101248.34;;;2.21;44.58
43663;BME280;74813;56.104;40.358;2024-02-26T09:24:14;101238.13;;;0.82;47.72
43663;BME280;74813;56.104;40.358;2024-02-26T09:26:47;101231.34;;;1.46;46.58
43663;BME280;74813;56.104;40.358;2024-02-26T09:29:19;101229.25;;;2.14;45.10
43663;BME280;74813;56.104;40.358;2024-02-26T09:31:51;101234.97;;;1.53;45.44
43663;BME280;74813;56.104;40.358;2024-02-26T09:34:24;101242.84;;;1.18;45.85
43663;BME280;74813;56.104;40.358;2024-02-26T09:36:56;101217.25;;;3.29;42.49
43663;BME280;74813;56.104;40.358;2024-02-26T09:39:28;101210.31;;;2.92;43.28
43663;BME280;74813;56.104;40.358;2024-02-26T09:42:04;101208.44;;;2.92;41.17
43663;BME280;74813;56.104;40.358;2024-02-26T09:44:40;101215.63;;;2.78;43.29
43663;BME280;74813;56.104;40.358;2024-02-26T09:47:13;101207.34;;;4.24;41.07
43663;BME280;74813;56.104;40.358;2024-02-26T09:49:47;101204.19;;;4.14;39.75
43663;BME280;74813;56.104;40.358;2024-02-26T09:52:20;101206.19;;;3.85;40.26
43663;BME280;74813;56.104;40.358;2024-02-26T09:54:53;101199.31;;;3.96;40.81
43663;BME280;74813;56.104;40.358;2024-02-26T09:57:26;101204.66;;;2.93;42.81
43663;BME280;74813;56.104;40.358;2024-02-26T09:59:59;101201.75;;;3.78;40.67
43663;BME280;74813;56.104;40.358;2024-02-26T10:02:36;101202.06;;;3.48;41.36
43663;BME280;74813;56.104;40.358;2024-02-26T10:05:12;101207.28;;;1.43;45.83
43663;BME280;74813;56.104;40.358;2024-02-26T10:07:47;101189.78;;;4.60;40.45
43663;BME280;74813;56.104;40.358;2024-02-26T10:10:19;101218.28;;;2.72;43.02
43663;BME280;74813;56.104;40.358;2024-02-26T10:12:52;101211.63;;;3.37;41.94
43663;BME280;74813;56.104;40.358;2024-02-26T10:15:24;101201.19;;;2.50;43.11
43663;BME280;74813;56.104;40.358;2024-02-26T10:17:56;101209.41;;;3.13;42.45
43663;BME280;74813;56.104;40.358;2024-02-26T10:20:29;101199.59;;;3.60;40.64
43663;BME280;74813;56.104;40.358;2024-02-26T10:23:04;101207.22;;;3.01;42.08
43663;BME280;74813;56.104;40.358;2024-02-26T10:25:37;101189.66;;;3.04;42.26
43663;BME280;74813;56.104;40.358;2024-02-26T10:28:09;101181.13;;;4.96;38.84
43663;BME280;74813;56.104;40.358;2024-02-26T10:30:42;101183.03;;;5.68;36.69
43663;BME280;74813;56.104;40.358;2024-02-26T10:33:14;101201.06;;;4.11;39.51
43663;BME280;74813;56.104;40.358;2024-02-26T10:35:47;101183.22;;;5.14;37.43
43663;BME280;74813;56.104;40.358;2024-02-26T10:38:19;101183.66;;;4.25;38.70
43663;BME280;74813;56.104;40.358;2024-02-26T10:40:52;101213.25;;;4.41;37.82
43663;BME280;74813;56.104;40.358;2024-02-26T10:43:25;101185.97;;;5.14;36.41
43663;BME280;74813;56.104;40.358;2024-02-26T10:45:58;101170.31;;;6.00;35.20
43663;BME280;74813;56.104;40.358;2024-02-26T10:48:30;101181.78;;;4.79;37.77
43663;BME280;74813;56.104;40.358;2024-02-26T10:51:03;101173.00;;;4.70;36.96
43663;BME280;74813;56.104;40.358;2024-02-26T10:53:36;101171.88;;;3.43;38.88
43663;BME280;74813;56.104;40.358;2024-02-26T10:56:10;101175.09;;;4.48;36.79
43663;BME280;74813;56.104;40.358;2024-02-26T10:58:45;101167.38;;;2.87;39.47
43663;BME280;74813;56.104;40.358;2024-02-26T11:01:19;101179.06;;;2.59;40.01
43663;BME280;74813;56.104;40.358;2024-02-26T11:03:52;101170.16;;;3.35;37.69
43663;BME280;74813;56.104;40.358;2024-02-26T11:06:26;101174.91;;;3.61;37.08
43663;BME280;74813;56.104;40.358;2024-02-26T11:08:59;101158.97;;;3.17;38.80
43663;BME280;74813;56.104;40.358;2024-02-26T11:11:33;101167.75;;;3.60;37.56
43663;BME280;74813;56.104;40.358;2024-02-26T11:14:08;101219.63;;;3.45;35.52
43663;BME280;74813;56.104;40.358;2024-02-26T11:16:41;101190.56;;;2.55;36.48
43663;BME280;74813;56.104;40.358;2024-02-26T11:19:15;101181.53;;;3.11;35.88
43663;BME280;74813;56.104;40.358;2024-02-26T11:21:48;101196.13;;;3.38;34.20
43663;BME280;74813;56.104;40.358;2024-02-26T11:24:20;101187.75;;;1.84;37.25
43663;BME280;74813;56.104;40.358;2024-02-26T11:26:58;101182.31;;;2.70;34.94
43663;BME280;74813;56.104;40.358;2024-02-26T11:29:43;101181.06;;;1.65;36.82
43663;BME280;74813;56.104;40.358;2024-02-26T11:32:16;101160.00;;;2.81;34.99
43663;BME280;74813;56.104;40.358;2024-02-26T11:34:49;101178.72;;;2.41;35.31
43663;BME280;74813;56.104;40.358;2024-02-26T11:37:22;101170.53;;;3.26;33.82
43663;BME280;74813;56.104;40.358;2024-02-26T11:39:54;101149.06;;;3.51;33.07
43663;BME280;74813;56.104;40.358;2024-02-26T11:42:27;101157.88;;;3.53;32.07
43663;BME280;74813;56.104;40.358;2024-02-26T11:44:59;101156.09;;;2.90;33.27
43663;BME280;74813;56.104;40.358;2024-02-26T11:47:34;101192.38;;;2.26;34.12
43663;BME280;74813;56.104;40.358;2024-02-26T11:50:35;101160.34;;;2.00;35.10
43663;BME280;74813;56.104;40.358;2024-02-26T11:58:57;101201.81;;;2.09;32.90
43663;BME280;74813;56.104;40.358;2024-02-26T12:04:19;101168.16;;;1.52;34.62
43663;BME280;74813;56.104;40.358;2024-02-26T12:06:56;101143.88;;;1.65;34.27
43663;BME280;74813;56.104;40.358;2024-02-26T12:09:39;101139.66;;;1.99;34.19
43663;BME280;74813;56.104;40.358;2024-02-26T12:12:18;101142.66;;;2.32;32.81
43663;BME280;74813;56.104;40.358;2024-02-26T12:17:25;101148.81;;;2.20;34.10
43663;BME280;74813;56.104;40.358;2024-02-26T12:20:08;101146.25;;;2.11;32.53
43663;BME280;74813;56.104;40.358;2024-02-26T12:22:41;101148.44;;;2.01;33.61
43663;BME280;74813;56.104;40.358;2024-02-26T12:25:16;101139.94;;;1.32;34.52
43663;BME280;74813;56.104;40.358;2024-02-26T12:27:48;101146.13;;;1.98;33.33
43663;BME280;74813;56.104;40.358;2024-02-26T12:30:21;101146.75;;;1.79;33.02
43663;BME280;74813;56.104;40.358;2024-02-26T12:32:54;101120.72;;;2.06;32.82
43663;BME280;74813;56.104;40.358;2024-02-26T12:35:27;101133.56;;;1.97;32.92
43663;BME280;74813;56.104;40.358;2024-02-26T12:38:00;101122.72;;;1.76;32.73
43663;BME280;74813;56.104;40.358;2024-02-26T12:40:33;101140.91;;;1.09;33.37
43663;BME280;74813;56.104;40.358;2024-02-26T12:43:05;101131.63;;;0.89;35.21
43663;BME280;74813;56.104;40.358;2024-02-26T12:45:40;101131.84;;;0.87;33.98
43663;BME280;74813;56.104;40.358;2024-02-26T12:48:12;101136.97;;;1.26;33.75
43663;BME280;74813;56.104;40.358;2024-02-26T12:50:46;101136.09;;;1.11;33.61
43663;BME280;74813;56.104;40.358;2024-02-26T12:53:18;101132.28;;;1.20;33.41
43663;BME280;74813;56.104;40.358;2024-02-26T12:55:51;101132.19;;;1.14;34.40
43663;BME280;74813;56.104;40.358;2024-02-26T12:58:23;101147.44;;;1.29;34.00
43663;BME280;74813;56.104;40.358;2024-02-26T13:00:56;101149.66;;;1.11;34.64
43663;BME280;74813;56.104;40.358;2024-02-26T13:03:29;101117.34;;;0.80;33.91
43663;BME280;74813;56.104;40.358;2024-02-26T13:06:02;101121.41;;;0.46;35.19
43663;BME280;74813;56.104;40.358;2024-02-26T13:08:35;101121.66;;;0.74;35.79
43663;BME280;74813;56.104;40.358;2024-02-26T13:11:07;101123.84;;;0.56;34.99
43663;BME280;74813;56.104;40.358;2024-02-26T13:13:40;101121.25;;;0.77;34.94
43663;BME280;74813;56.104;40.358;2024-02-26T13:16:14;101140.88;;;0.50;35.93
43663;BME280;74813;56.104;40.358;2024-02-26T13:18:47;101115.44;;;0.66;35.35
43663;BME280;74813;56.104;40.358;2024-02-26T13:21:19;101112.44;;;0.46;36.13
43663;BME280;74813;56.104;40.358;2024-02-26T13:23:52;101115.13;;;0.31;36.33